createdAt,value
2022-11-29T00:01:39.690Z,100976.22
2022-11-29T00:04:07.107Z,100978.69
2022-11-29T00:06:35.597Z,100987.25
2022-11-29T00:09:08.762Z,100979.78
2022-11-29T00:11:57.254Z,100982.47
2022-11-29T00:14:26.441Z,100977.88
2022-11-29T00:16:59.318Z,100981.53
2022-11-29T00:19:26.548Z,100988.09
2022-11-29T00:21:54.017Z,100975.81
2022-11-29T00:24:21.683Z,100978.31
2022-11-29T00:26:49.609Z,100974.34
2022-11-29T00:29:18.728Z,100970.19
2022-11-29T00:31:46.038Z,100978.19
2022-11-29T00:34:13.495Z,100972.16
2022-11-29T00:36:41.086Z,100978.19
2022-11-29T00:39:11.723Z,100973.88
2022-11-29T00:41:39.709Z,100968.91
2022-11-29T00:44:06.882Z,100973.69
2022-11-29T00:46:34.200Z,100972.56
2022-11-29T00:49:01.537Z,100975.91
2022-11-29T00:51:28.807Z,100982.09
2022-11-29T00:53:56.029Z,100977.97
2022-11-29T00:56:23.408Z,100978.72
2022-11-29T00:58:50.560Z,100980.13
2022-11-29T01:01:18.181Z,100975.69
2022-11-29T01:03:45.731Z,100979.06
2022-11-29T01:06:16.823Z,100978.19
2022-11-29T01:08:45.798Z,100972.81
2022-11-29T01:11:24.058Z,100984.97
2022-11-29T01:13:56.864Z,100974.44
2022-11-29T01:16:25.038Z,100972.81
2022-11-29T01:18:52.357Z,100973.97
2022-11-29T01:21:22.608Z,100976.28
2022-11-29T01:23:52.002Z,100974.78
2022-11-29T01:26:24.178Z,100976.81
2022-11-29T01:28:54.606Z,100977.66
2022-11-29T01:31:33.137Z,100986.63
2022-11-29T01:34:02.915Z,100988.78
2022-11-29T01:36:30.846Z,100982.53
2022-11-29T01:39:03.538Z,100983.38
2022-11-29T01:41:34.359Z,100996.97
2022-11-29T01:44:28.391Z,101003.66
2022-11-29T01:46:57.123Z,101004.75
2022-11-29T01:49:34.968Z,101003.22
2022-11-29T01:52:11.044Z,101013.16
2022-11-29T01:54:50.409Z,101003.78
2022-11-29T01:57:20.238Z,101010.78
2022-11-29T01:59:56.556Z,100999.81
2022-11-29T02:02:43.276Z,101005.19
2022-11-29T02:05:15.277Z,101005.50
2022-11-29T02:07:48.317Z,101006.16
2022-11-29T02:10:16.687Z,101005.84
2022-11-29T02:12:57.089Z,101005.31
2022-11-29T02:15:46.118Z,101001.09
2022-11-29T02:18:24.280Z,101007.25
2022-11-29T02:21:17.206Z,100999.25
2022-11-29T02:24:28.172Z,101007.09
2022-11-29T02:27:06.999Z,101003.25
2022-11-29T02:30:01.589Z,101001.09
2022-11-29T02:33:07.802Z,101000.56
2022-11-29T02:36:09.440Z,101007.78
2022-11-29T02:39:20.333Z,101001.53
2022-11-29T02:42:12.303Z,101002.38
2022-11-29T02:44:54.982Z,101004.53
2022-11-29T02:47:39.506Z,101007.00
2022-11-29T02:50:20.443Z,101005.94
2022-11-29T02:53:02.255Z,101014.03
2022-11-29T02:55:43.468Z,101009.81
2022-11-29T02:58:25.786Z,101012.94
2022-11-29T03:01:16.539Z,101023.63
2022-11-29T03:03:51.546Z,101022.22
2022-11-29T03:06:38.520Z,101022.22
2022-11-29T03:09:40.660Z,101031.50
2022-11-29T03:12:19.844Z,101031.06
2022-11-29T03:15:27.235Z,101037.53
2022-11-29T03:18:00.144Z,101036.34
2022-11-29T03:20:45.438Z,101044.00
2022-11-29T03:23:51.198Z,101046.47
2022-11-29T03:26:32.263Z,101051.66
2022-11-29T03:29:45.773Z,101045.72
2022-11-29T03:32:34.784Z,101050.91
2022-11-29T03:35:29.661Z,101060.81
2022-11-29T03:38:38.477Z,101050.91
2022-11-29T03:41:28.231Z,101054.13
2022-11-29T03:44:11.206Z,101052.53
2022-11-29T03:46:52.409Z,101065.22
2022-11-29T03:49:49.596Z,101061.16
2022-11-29T03:52:28.579Z,101053.06
2022-11-29T03:55:19.049Z,101057.28
2022-11-29T03:58:17.444Z,101063.19
2022-11-29T04:00:47.338Z,101065.13
2022-11-29T04:03:42.449Z,101068.81
2022-11-29T04:06:21.815Z,101071.06
2022-11-29T04:09:21.903Z,101066.78
2022-11-29T04:12:26.044Z,101072.69
2022-11-29T04:15:46.752Z,101068.81
2022-11-29T04:18:54.171Z,101064.91
2022-11-29T04:21:49.194Z,101072.28
2022-11-29T04:24:22.438Z,101075.16
2022-11-29T04:27:25.991Z,101077.44
2022-11-29T04:30:18.839Z,101073.41
2022-11-29T04:33:15.057Z,101076.88
2022-11-29T04:36:13.508Z,101078.53
2022-11-29T04:39:12.192Z,101088.22
2022-11-29T04:42:18.976Z,101090.59
2022-11-29T04:45:10.824Z,101093.50
2022-11-29T04:47:52.647Z,101090.59
2022-11-29T04:51:06.521Z,101086.16
2022-11-29T04:53:44.562Z,101093.69
2022-11-29T04:56:25.594Z,101091.66
2022-11-29T04:59:06.075Z,101097.81
2022-11-29T05:02:08.562Z,101088.63
2022-11-29T05:05:10.998Z,101095.09
2022-11-29T05:08:15.950Z,101092.50
2022-11-29T05:11:07.251Z,101103.72
2022-11-29T05:13:53.887Z,101099.94
2022-11-29T05:16:49.222Z,101107.75
2022-11-29T05:19:58.530Z,101110.88
2022-11-29T05:22:31.380Z,101111.94
2022-11-29T05:25:35.306Z,101100.50
2022-11-29T05:28:20.409Z,101110.84
2022-11-29T05:31:13.558Z,101107.00
2022-11-29T05:34:10.751Z,101110.22
2022-11-29T05:37:02.456Z,101113.66
2022-11-29T05:40:04.073Z,101119.47
2022-11-29T05:42:42.957Z,101119.91
2022-11-29T05:45:30.586Z,101122.69
2022-11-29T05:48:21.619Z,101127.78
2022-11-29T05:51:17.460Z,101138.25
2022-11-29T05:54:09.423Z,101141.72
2022-11-29T05:56:47.189Z,101140.75
2022-11-29T05:59:23.285Z,101148.94
2022-11-29T06:02:26.341Z,101152.69
2022-11-29T06:05:33.470Z,101151.97
2022-11-29T06:08:36.373Z,101156.09
2022-11-29T06:11:37.817Z,101161.16
2022-11-29T06:14:27.388Z,101159.84
2022-11-29T06:17:38.747Z,101165.44
2022-11-29T06:20:27.006Z,101171.28
2022-11-29T06:23:42.125Z,101171.28
2022-11-29T06:26:41.097Z,101182.72
2022-11-29T06:29:42.282Z,101189.44
2022-11-29T06:32:40.224Z,101182.72
2022-11-29T06:35:39.975Z,101182.72
2022-11-29T06:38:22.177Z,101182.28
2022-11-29T06:40:51.432Z,101176.25
2022-11-29T06:43:19.064Z,101180.53
2022-11-29T06:45:52.111Z,101184.31
2022-11-29T06:48:27.725Z,101187.31
2022-11-29T06:51:26.455Z,101194.00
2022-11-29T06:54:06.353Z,101201.53
2022-11-29T06:57:09.056Z,101197.72
2022-11-29T07:00:18.653Z,101203.19
2022-11-29T07:03:07.382Z,101214.72
2022-11-29T07:05:36.023Z,101211.63
2022-11-29T07:08:11.880Z,101213.72
2022-11-29T07:10:41.422Z,101208.59
2022-11-29T07:13:16.078Z,101219.97
2022-11-29T07:16:21.351Z,101215.84
2022-11-29T07:19:13.151Z,101210.06
2022-11-29T07:22:16.061Z,101216.28
2022-11-29T07:25:19.972Z,101222.84
2022-11-29T07:28:17.911Z,101229.09
2022-11-29T07:31:29.939Z,101232.44
2022-11-29T07:34:17.081Z,101227.19
2022-11-29T07:37:16.675Z,101238.78
2022-11-29T07:39:56.095Z,101234.50
2022-11-29T07:42:29.780Z,101235.97
2022-11-29T07:45:21.316Z,101243.25
2022-11-29T07:47:49.509Z,101234.25
2022-11-29T07:50:16.865Z,101242.88
2022-11-29T07:52:44.070Z,101243.84
2022-11-29T07:55:21.550Z,101254.94
2022-11-29T07:57:49.349Z,101258.72
2022-11-29T08:00:18.605Z,101255.97
2022-11-29T08:02:48.580Z,101258.28
2022-11-29T08:05:16.249Z,101263.06
2022-11-29T08:07:43.719Z,101263.56
2022-11-29T08:10:15.911Z,101268.28
2022-11-29T08:12:50.157Z,101268.13
2022-11-29T08:15:22.174Z,101263.44
2022-11-29T08:17:50.584Z,101268.56
2022-11-29T08:20:17.852Z,101272.97
2022-11-29T08:22:45.070Z,101278.56
2022-11-29T08:25:12.454Z,101276.72
2022-11-29T08:27:39.772Z,101282.03
2022-11-29T08:30:08.276Z,101290.31
2022-11-29T08:32:35.695Z,101281.50
2022-11-29T08:35:03.553Z,101276.81
2022-11-29T08:37:30.725Z,101286.69
2022-11-29T08:39:58.904Z,101283.22
2022-11-29T08:42:26.080Z,101281.81
2022-11-29T08:44:53.447Z,101288.19
2022-11-29T08:47:35.924Z,101285.88
2022-11-29T08:50:16.541Z,101295.34
2022-11-29T08:53:07.671Z,101300.53
2022-11-29T08:55:42.943Z,101294.13
2022-11-29T08:58:15.062Z,101304.47
2022-11-29T09:00:46.737Z,101301.00
2022-11-29T09:03:32.745Z,101310.03
2022-11-29T09:06:12.933Z,101312.63
2022-11-29T09:08:45.595Z,101313.09
2022-11-29T09:11:20.840Z,101315.47
2022-11-29T09:13:52.209Z,101317.91
2022-11-29T09:16:25.189Z,101319.81
2022-11-29T09:18:54.954Z,101322.81
2022-11-29T09:21:25.798Z,101315.47
2022-11-29T09:23:58.729Z,101314.91
2022-11-29T09:26:31.408Z,101330.94
2022-11-29T09:29:03.422Z,101324.06
2022-11-29T09:31:31.891Z,101320.94
2022-11-29T09:33:59.303Z,101324.19
2022-11-29T09:36:29.238Z,101314.28
2022-11-29T09:38:57.985Z,101311.72
2022-11-29T09:41:51.607Z,101322.94
2022-11-29T09:44:57.165Z,101318.41
2022-11-29T09:48:23.310Z,101331.44
2022-11-29T09:51:20.763Z,101324.44
2022-11-29T09:54:17.659Z,101327.84
2022-11-29T09:56:51.887Z,101329.06
2022-11-29T09:59:31.563Z,101331.94
2022-11-29T10:02:19.707Z,101334.72
2022-11-29T10:04:57.199Z,101325.78
2022-11-29T10:07:39.337Z,101329.22
2022-11-29T10:10:16.672Z,101330.13
2022-11-29T10:12:58.567Z,101335.97
2022-11-29T10:15:39.437Z,101332.31
2022-11-29T10:18:32.179Z,101335.84
2022-11-29T10:21:11.271Z,101334.50
2022-11-29T10:23:49.035Z,101337.34
2022-11-29T10:26:18.016Z,101337.34
2022-11-29T10:28:48.536Z,101336.19
2022-11-29T10:31:26.713Z,101338.47
2022-11-29T10:33:57.984Z,101340.19
2022-11-29T10:36:31.702Z,101341.81
2022-11-29T10:39:08.816Z,101339.44
2022-11-29T10:41:40.231Z,101344.41
2022-11-29T10:44:13.048Z,101343.31
2022-11-29T10:46:41.209Z,101337.69
2022-11-29T10:49:18.820Z,101339.00
2022-11-29T10:51:46.892Z,101346.31
2022-11-29T10:54:41.888Z,101339.44
2022-11-29T10:57:16.578Z,101342.53
2022-11-29T11:00:08.650Z,101336.94
2022-11-29T11:02:37.639Z,101342.13
2022-11-29T11:05:18.468Z,101335.56
2022-11-29T11:07:47.382Z,101340.97
2022-11-29T11:10:41.354Z,101340.53
2022-11-29T11:13:26.425Z,101350.25
2022-11-29T11:16:19.158Z,101347.22
2022-11-29T11:18:48.001Z,101345.56
2022-11-29T11:21:19.131Z,101354.75
2022-11-29T11:23:58.201Z,101358.13
2022-11-29T11:26:26.852Z,101358.72
2022-11-29T11:29:00.093Z,101354.69
2022-11-29T11:31:37.960Z,101357.47
2022-11-29T11:34:34.188Z,101356.81
2022-11-29T11:37:33.520Z,101356.94
2022-11-29T11:40:30.395Z,101356.72
2022-11-29T11:43:01.783Z,101363.53
2022-11-29T11:45:35.753Z,101361.16
2022-11-29T11:48:13.350Z,101355.75
2022-11-29T11:50:49.297Z,101364.28
2022-11-29T11:53:28.893Z,101367.16
2022-11-29T11:56:05.507Z,101369.91
2022-11-29T11:58:45.023Z,101365.38
2022-11-29T12:01:12.209Z,101369.66
2022-11-29T12:03:49.938Z,101376.41
2022-11-29T12:06:41.815Z,101381.03
2022-11-29T12:09:09.019Z,101375.06
2022-11-29T12:11:48.417Z,101378.53
2022-11-29T12:14:28.382Z,101380.19
2022-11-29T12:17:09.494Z,101378.75
2022-11-29T12:19:55.423Z,101382.75
2022-11-29T12:22:32.751Z,101383.72
2022-11-29T12:25:13.727Z,101390.81
2022-11-29T12:27:40.897Z,101396.00
2022-11-29T12:30:14.317Z,101394.78
2022-11-29T12:33:13.666Z,101395.88
2022-11-29T12:36:10.589Z,101399.09
2022-11-29T12:38:50.995Z,101399.31
2022-11-29T12:41:38.398Z,101399.94
2022-11-29T12:44:30.125Z,101400.16
2022-11-29T12:47:35.211Z,101393.56
2022-11-29T12:50:39.786Z,101392.06
2022-11-29T12:53:56.284Z,101401.03
2022-11-29T12:56:39.473Z,101404.09
2022-11-29T12:59:41.915Z,101403.31
2022-11-29T13:02:42.917Z,101402.03
2022-11-29T13:05:29.600Z,101395.34
2022-11-29T13:08:12.369Z,101401.69
2022-11-29T13:11:05.658Z,101406.38
2022-11-29T13:14:34.577Z,101409.09
2022-11-29T13:17:04.960Z,101414.56
2022-11-29T13:19:46.580Z,101413.91
2022-11-29T13:22:27.640Z,101412.13
2022-11-29T13:25:03.223Z,101413.53
2022-11-29T13:27:38.190Z,101418.75
2022-11-29T13:30:07.222Z,101409.03
2022-11-29T13:32:39.903Z,101405.78
2022-11-29T13:35:22.724Z,101417.84
2022-11-29T13:38:08.587Z,101417.66
2022-11-29T13:41:02.435Z,101422.44
2022-11-29T13:44:02.804Z,101425.06
2022-11-29T13:46:50.487Z,101425.66
2022-11-29T13:49:41.344Z,101432.25
2022-11-29T13:52:35.345Z,101430.63
2022-11-29T13:55:11.643Z,101432.59
2022-11-29T13:58:15.043Z,101428.56
2022-11-29T14:00:51.664Z,101437.00
2022-11-29T14:03:30.242Z,101432.59
2022-11-29T14:06:32.798Z,101443.28
2022-11-29T14:09:25.988Z,101434.53
2022-11-29T14:12:22.454Z,101441.31
2022-11-29T14:14:58.146Z,101445.81
2022-11-29T14:17:47.966Z,101441.25
2022-11-29T14:20:24.844Z,101444.56
2022-11-29T14:23:16.557Z,101444.88
2022-11-29T14:25:58.778Z,101448.78
2022-11-29T14:28:36.413Z,101453.25
2022-11-29T14:31:06.444Z,101452.75
2022-11-29T14:33:38.123Z,101456.88
2022-11-29T14:36:43.638Z,101464.91
2022-11-29T14:39:44.164Z,101459.78
2022-11-29T14:42:31.202Z,101469.13
2022-11-29T14:45:06.227Z,101465.22
2022-11-29T14:47:48.428Z,101466.50
2022-11-29T14:50:39.301Z,101469.34
2022-11-29T14:53:28.906Z,101472.25
2022-11-29T14:56:31.705Z,101479.69
2022-11-29T14:59:42.718Z,101473.22
2022-11-29T15:02:32.891Z,101475.00
2022-11-29T15:05:18.457Z,101478.13
2022-11-29T15:08:28.223Z,101483.34
2022-11-29T15:11:18.123Z,101481.06
2022-11-29T15:14:31.145Z,101485.09
2022-11-29T15:17:22.793Z,101483.66
2022-11-29T15:20:46.467Z,101489.69
2022-11-29T15:23:18.500Z,101489.75
2022-11-29T15:25:55.013Z,101489.00
2022-11-29T15:28:28.500Z,101490.53
2022-11-29T15:31:13.338Z,101496.59
2022-11-29T15:33:44.022Z,101500.63
2022-11-29T15:36:24.165Z,101495.09
2022-11-29T15:38:57.370Z,101501.47
2022-11-29T15:41:31.811Z,101504.31
2022-11-29T15:44:02.910Z,101511.78
2022-11-29T15:46:34.279Z,101509.66
2022-11-29T15:49:28.098Z,101511.44
2022-11-29T15:52:14.361Z,101508.19
2022-11-29T15:54:51.032Z,101511.78
2022-11-29T15:57:32.576Z,101509.97
2022-11-29T16:00:05.459Z,101512.09
2022-11-29T16:02:41.054Z,101512.09
2022-11-29T16:05:22.988Z,101512.25
2022-11-29T16:07:56.261Z,101509.13
2022-11-29T16:10:40.742Z,101507.91
2022-11-29T16:13:37.061Z,101513.53
2022-11-29T16:16:22.703Z,101509.72
2022-11-29T16:18:51.170Z,101518.81
2022-11-29T16:21:29.256Z,101514.59
2022-11-29T16:23:58.290Z,101525.13
2022-11-29T16:26:38.289Z,101519.69
2022-11-29T16:29:06.040Z,101529.75
2022-11-29T16:31:37.048Z,101526.38
2022-11-29T16:34:24.322Z,101533.16
2022-11-29T16:37:04.062Z,101530.09
2022-11-29T16:39:32.001Z,101528.72
2022-11-29T16:42:14.567Z,101534.00
2022-11-29T16:44:41.800Z,101538.38
2022-11-29T16:47:17.941Z,101547.38
2022-11-29T16:49:45.781Z,101545.13
2022-11-29T16:52:33.853Z,101542.31
2022-11-29T16:55:01.191Z,101547.09
2022-11-29T16:57:29.843Z,101541.28
2022-11-29T16:59:57.453Z,101553.75
2022-11-29T17:02:28.888Z,101548.84
2022-11-29T17:04:57.034Z,101542.31
2022-11-29T17:07:31.567Z,101547.63
2022-11-29T17:09:59.244Z,101549.31
2022-11-29T17:12:26.568Z,101549.22
2022-11-29T17:14:53.740Z,101553.31
2022-11-29T17:17:20.937Z,101562.25
2022-11-29T17:19:48.167Z,101562.31
2022-11-29T17:22:15.391Z,101561.25
2022-11-29T17:24:47.669Z,101573.16
2022-11-29T17:27:15.528Z,101573.66
2022-11-29T17:29:42.624Z,101580.50
2022-11-29T17:32:10.030Z,101587.63
2022-11-29T17:34:37.303Z,101581.66
2022-11-29T17:37:04.525Z,101583.81
2022-11-29T17:39:31.958Z,101590.81
2022-11-29T17:41:59.135Z,101583.47
2022-11-29T17:44:26.701Z,101595.81
2022-11-29T17:46:53.882Z,101600.59
2022-11-29T17:49:21.140Z,101606.69
2022-11-29T17:51:53.099Z,101601.09
2022-11-29T17:54:22.669Z,101601.66
2022-11-29T17:56:50.866Z,101602.09
2022-11-29T17:59:19.226Z,101599.88
2022-11-29T18:01:50.051Z,101609.16
2022-11-29T18:04:17.748Z,101615.22
2022-11-29T18:06:49.800Z,101616.59
2022-11-29T18:09:19.296Z,101612.19
2022-11-29T18:11:49.945Z,101605.72
2022-11-29T18:14:23.257Z,101615.25
2022-11-29T18:16:51.258Z,101612.91
2022-11-29T18:19:22.085Z,101615.28
2022-11-29T18:21:50.615Z,101614.72
2022-11-29T18:24:17.919Z,101616.09
2022-11-29T18:26:45.854Z,101608.94
2022-11-29T18:29:13.250Z,101614.00
2022-11-29T18:31:44.395Z,101614.63
2022-11-29T18:34:13.907Z,101620.56
2022-11-29T18:36:45.733Z,101610.72
2022-11-29T18:39:16.569Z,101612.34
2022-11-29T18:41:49.868Z,101611.31
2022-11-29T18:44:21.814Z,101617.53
2022-11-29T18:46:49.261Z,101620.84
2022-11-29T18:49:19.426Z,101623.31
2022-11-29T18:51:48.956Z,101622.81
2022-11-29T18:54:18.914Z,101617.88
2022-11-29T18:56:46.527Z,101622.00
2022-11-29T18:59:17.334Z,101622.84
2022-11-29T19:01:47.495Z,101619.59
2022-11-29T19:04:18.929Z,101619.47
2022-11-29T19:06:46.647Z,101616.16
2022-11-29T19:09:18.149Z,101623.72
2022-11-29T19:11:45.427Z,101623.50
2022-11-29T19:14:13.267Z,101630.00
2022-11-29T19:16:44.789Z,101629.91
2022-11-29T19:19:13.461Z,101627.25
2022-11-29T19:21:41.337Z,101634.50
2022-11-29T19:24:14.728Z,101626.44
2022-11-29T19:26:46.099Z,101633.16
2022-11-29T19:29:14.317Z,101630.81
2022-11-29T19:31:42.542Z,101624.25
2022-11-29T19:34:10.210Z,101626.47
2022-11-29T19:36:42.621Z,101618.91
2022-11-29T19:39:12.897Z,101625.38
2022-11-29T19:41:43.637Z,101619.13
2022-11-29T19:44:12.113Z,101633.28
2022-11-29T19:46:48.829Z,101629.31
2022-11-29T19:49:16.523Z,101627.03
2022-11-29T19:51:43.778Z,101628.28
2022-11-29T19:54:12.060Z,101630.00
2022-11-29T19:56:39.831Z,101624.22
2022-11-29T19:59:08.363Z,101622.59
2022-11-29T20:01:40.939Z,101623.75
2022-11-29T20:04:13.131Z,101630.16
2022-11-29T20:06:41.614Z,101638.63
2022-11-29T20:09:09.398Z,101634.28
2022-11-29T20:11:37.122Z,101634.50
2022-11-29T20:14:06.212Z,101631.28
2022-11-29T20:16:33.961Z,101638.63
2022-11-29T20:19:01.721Z,101642.59
2022-11-29T20:21:33.710Z,101639.97
2022-11-29T20:24:05.057Z,101651.78
2022-11-29T20:26:35.308Z,101644.31
2022-11-29T20:29:03.882Z,101648.78
2022-11-29T20:31:33.556Z,101649.28
2022-11-29T20:34:01.542Z,101640.59
2022-11-29T20:37:07.375Z,101646.25
2022-11-29T20:39:52.914Z,101657.34
2022-11-29T20:42:32.244Z,101649.28
2022-11-29T20:45:07.054Z,101649.88
2022-11-29T20:48:00.786Z,101646.38
2022-11-29T20:50:31.512Z,101653.69
2022-11-29T20:53:41.219Z,101652.59
2022-11-29T20:56:11.350Z,101658.50
2022-11-29T20:58:39.164Z,101661.78
2022-11-29T21:01:07.594Z,101652.25
2022-11-29T21:03:35.133Z,101662.16
2022-11-29T21:06:05.419Z,101658.81
2022-11-29T21:08:34.243Z,101657.84
2022-11-29T21:11:09.086Z,101671.75
2022-11-29T21:13:37.250Z,101658.72
2022-11-29T21:16:05.557Z,101654.84
2022-11-29T21:18:34.290Z,101662.25
2022-11-29T21:21:30.507Z,101655.97
2022-11-29T21:24:38.006Z,101659.09
2022-11-29T21:27:05.493Z,101666.53
2022-11-29T21:29:32.918Z,101668.13
2022-11-29T21:32:01.946Z,101669.53
2022-11-29T21:34:29.225Z,101667.28
2022-11-29T21:36:59.183Z,101669.03
2022-11-29T21:39:34.472Z,101666.03
2022-11-29T21:42:02.702Z,101664.06
2022-11-29T21:44:29.912Z,101659.94
2022-11-29T21:46:57.107Z,101663.78
2022-11-29T21:49:24.387Z,101668.66
2022-11-29T21:51:52.114Z,101666.03
2022-11-29T21:54:19.265Z,101675.34
2022-11-29T21:56:46.440Z,101680.03
2022-11-29T21:59:13.623Z,101667.75
2022-11-29T22:01:40.852Z,101678.56
2022-11-29T22:04:08.152Z,101678.19
2022-11-29T22:06:36.695Z,101677.81
2022-11-29T22:09:05.058Z,101670.25
2022-11-29T22:11:33.987Z,101671.75
2022-11-29T22:14:14.937Z,101675.47
2022-11-29T22:16:50.847Z,101681.06
2022-11-29T22:19:27.466Z,101683.91
2022-11-29T22:22:00.941Z,101678.69
2022-11-29T22:24:32.347Z,101680.44
2022-11-29T22:26:59.760Z,101683.91
2022-11-29T22:29:27.562Z,101686.13
2022-11-29T22:31:56.866Z,101679.06
2022-11-29T22:34:27.109Z,101681.44
2022-11-29T22:36:55.198Z,101680.41
2022-11-29T22:39:22.615Z,101681.53
2022-11-29T22:41:54.292Z,101685.16
2022-11-29T22:44:23.785Z,101687.25
2022-11-29T22:46:51.316Z,101691.59
2022-11-29T22:49:18.650Z,101690.00
2022-11-29T22:51:45.888Z,101695.09
2022-11-29T22:54:16.262Z,101691.59
2022-11-29T22:56:45.334Z,101692.34
2022-11-29T22:59:13.741Z,101694.06
2022-11-29T23:01:42.274Z,101690.84
2022-11-29T23:04:12.035Z,101686.91
2022-11-29T23:06:43.399Z,101691.22
2022-11-29T23:09:19.664Z,101686.91
2022-11-29T23:11:55.646Z,101690.13
2022-11-29T23:14:23.676Z,101689.09
2022-11-29T23:16:52.344Z,101687.88
2022-11-29T23:19:19.675Z,101684.41
2022-11-29T23:21:47.325Z,101684.91
2022-11-29T23:24:15.917Z,101681.44
2022-11-29T23:26:46.426Z,101685.78
2022-11-29T23:29:17.976Z,101686.75
2022-11-29T23:31:46.744Z,101692.34
2022-11-29T23:34:14.492Z,101689.38
2022-11-29T23:36:42.171Z,101688.47
2022-11-29T23:39:09.461Z,101686.34
2022-11-29T23:41:36.941Z,101691.22
2022-11-29T23:44:06.023Z,101686.75
2022-11-29T23:46:34.612Z,101681.94
2022-11-29T23:49:01.791Z,101684.66
2022-11-29T23:51:29.219Z,101693.56
2022-11-29T23:53:56.488Z,101696.31
2022-11-29T23:56:23.661Z,101695.31
2022-11-29T23:58:50.810Z,101693.31
